Time;durP1;ratioP1;P1;durP2;ratioP2;P2;SDS_P1;SDS_P2;PMS_P1;PMS_P2;Temp;Humidity;BMP_temperature;BMP_pressure;BME280_temperature;BME280_humidity;BME280_pressure;Samples;Min_cycle;Max_cycle;Signal;HPM_P1;HPM_P2
2022/01/04 00:01:57;;;;;;;1.60;1.00;;;;;;;11.78;57.02;94843.03;5013460;28;20238;-85
2022/01/04 00:04:24;;;;;;;1.80;1.10;;;;;;;11.75;57.91;94840.81;5012066;28;20194;-82
2022/01/04 00:06:50;;;;;;;1.50;1.20;;;;;;;11.73;57.46;94835.09;5012512;28;20203;-86
2022/01/04 00:09:17;;;;;;;1.23;0.90;;;;;;;11.68;57.16;94822.78;5012103;28;20223;-83
2022/01/04 00:11:58;;;;;;;1.80;0.90;;;;;;;11.60;57.15;94827.34;5011834;28;20231;-84
2022/01/04 00:14:24;;;;;;;1.43;1.00;;;;;;;11.65;57.27;94814.66;5012839;28;20207;-86
2022/01/04 00:16:55;;;;;;;1.00;0.90;;;;;;;11.72;57.52;94815.44;5013282;28;20210;-86
2022/01/04 00:19:22;;;;;;;1.87;1.17;;;;;;;11.81;56.97;94814.25;5013008;28;20226;-85
2022/01/04 00:21:48;;;;;;;1.87;1.00;;;;;;;11.80;56.66;94807.50;5012183;28;20227;-85
2022/01/04 00:24:15;;;;;;;1.07;0.97;;;;;;;11.82;56.64;94800.38;5012944;28;20227;-84
2022/01/04 00:26:41;;;;;;;1.10;0.90;;;;;;;11.81;56.66;94788.47;5013548;28;20202;-87
2022/01/04 00:29:08;;;;;;;1.33;0.90;;;;;;;11.84;56.35;94792.44;5012404;28;20207;-86
2022/01/04 00:31:34;;;;;;;0.90;0.80;;;;;;;11.75;56.59;94799.56;5012883;28;20233;-85
2022/01/04 00:34:02;;;;;;;1.30;0.80;;;;;;;11.73;56.54;94797.19;5014018;28;20203;-87
2022/01/04 00:36:28;;;;;;;1.00;0.90;;;;;;;11.76;56.39;94786.47;5014909;28;20214;-87
2022/01/04 00:38:55;;;;;;;2.30;0.80;;;;;;;11.85;56.37;94783.69;5014782;28;20199;-86
2022/01/04 00:41:21;;;;;;;1.57;1.00;;;;;;;11.89;56.07;94779.72;5013726;28;20239;-87
2022/01/04 00:43:48;;;;;;;1.40;0.90;;;;;;;11.85;56.04;94758.69;5015022;28;20228;-86
2022/01/04 00:46:17;;;;;;;0.90;0.70;;;;;;;11.93;55.81;94749.94;5014173;28;20203;-85
2022/01/04 00:51:29;;;;;;;1.10;1.00;;;;;;;11.97;55.53;94743.34;5013677;28;20229;-84
2022/01/04 00:53:55;;;;;;;1.27;1.00;;;;;;;11.97;55.25;94739.00;5012435;28;20206;-85
2022/01/04 00:56:22;;;;;;;3.73;1.00;;;;;;;11.95;55.06;94740.97;5012137;28;20203;-86
2022/01/04 00:58:48;;;;;;;1.47;0.90;;;;;;;12.03;55.04;94738.19;5013475;28;20198;-83
2022/01/04 01:01:14;;;;;;;1.00;0.70;;;;;;;11.93;54.18;94727.50;5012614;28;20595;-86
2022/01/04 01:03:41;;;;;;;1.70;1.10;;;;;;;11.97;54.20;94728.66;5013306;28;20203;-87
2022/01/04 01:06:09;;;;;;;2.67;0.93;;;;;;;12.00;54.01;94725.69;5013181;28;20210;-85
2022/01/04 01:08:37;;;;;;;1.77;1.00;;;;;;;12.04;54.11;94723.50;5013412;28;20226;-84
2022/01/04 01:11:05;;;;;;;1.00;0.80;;;;;;;12.03;54.08;94727.84;5012846;28;20234;-84
2022/01/04 01:13:31;;;;;;;0.97;0.80;;;;;;;12.05;53.77;94712.19;5013033;28;20264;-87
2022/01/04 01:15:58;;;;;;;1.43;1.03;;;;;;;12.08;53.72;94714.34;5012714;28;20210;-87
2022/01/04 01:18:24;;;;;;;1.67;0.90;;;;;;;12.03;53.21;94714.16;5013840;28;20233;-85
2022/01/04 01:20:51;;;;;;;1.00;0.90;;;;;;;12.12;53.28;94715.53;5011883;28;20503;-85
2022/01/04 01:23:18;;;;;;;0.80;0.80;;;;;;;12.12;52.79;94702.63;5014020;28;20291;-86
2022/01/04 01:25:46;;;;;;;1.53;0.90;;;;;;;12.10;52.97;94702.03;5013073;28;20199;-87
2022/01/04 01:28:14;;;;;;;1.60;1.00;;;;;;;12.04;52.80;94706.22;5013763;28;20222;-87
2022/01/04 01:30:41;;;;;;;1.17;0.90;;;;;;;11.96;52.52;94706.44;5012309;28;20245;-87
2022/01/04 01:33:08;;;;;;;1.10;0.90;;;;;;;11.95;52.63;94701.50;5012391;28;20207;-88
2022/01/04 01:35:35;;;;;;;0.90;0.90;;;;;;;11.97;52.42;94710.63;5012758;28;20199;-86
2022/01/04 01:38:02;;;;;;;1.00;0.90;;;;;;;11.93;52.01;94698.34;5013137;28;20210;-85
2022/01/04 01:40:29;;;;;;;0.70;0.70;;;;;;;11.95;52.58;94684.22;5013028;28;20698;-85
2022/01/04 01:42:56;;;;;;;0.87;0.87;;;;;;;12.00;52.37;94691.34;5013144;28;20206;-84
2022/01/04 01:45:23;;;;;;;0.80;0.80;;;;;;;12.08;52.64;94675.66;5012375;28;20206;-88
2022/01/04 01:47:51;;;;;;;1.40;0.77;;;;;;;12.08;52.49;94676.44;5012468;28;20198;-86
2022/01/04 01:50:19;;;;;;;0.80;0.80;;;;;;;12.03;52.36;94653.03;5012651;28;20218;-86
2022/01/04 01:52:48;;;;;;;0.80;0.80;;;;;;;12.07;52.92;94651.63;5012143;28;20225;-84
2022/01/04 01:55:16;;;;;;;1.10;0.87;;;;;;;12.16;52.55;94638.47;5013230;28;20206;-85
2022/01/04 01:57:43;;;;;;;1.00;0.90;;;;;;;12.24;52.48;94644.16;5013028;28;20203;-84
2022/01/04 02:00:14;;;;;;;1.20;1.03;;;;;;;12.17;52.23;94633.09;5012076;28;20222;-87
2022/01/04 02:02:40;;;;;;;0.70;0.70;;;;;;;12.16;52.68;94630.72;5013021;28;20232;-87
2022/01/04 02:05:09;;;;;;;1.53;1.00;;;;;;;12.22;52.54;94619.56;5012224;28;20198;-85
2022/01/04 02:07:36;;;;;;;0.80;0.73;;;;;;;12.19;52.79;94617.41;5013342;28;20195;-84
2022/01/04 02:10:04;;;;;;;0.80;0.80;;;;;;;12.22;52.35;94604.88;5012040;28;20229;-84
2022/01/04 02:12:32;;;;;;;0.80;0.70;;;;;;;12.27;52.40;94605.03;5011669;28;20238;-84
2022/01/04 02:14:59;;;;;;;1.00;0.90;;;;;;;12.21;52.36;94610.25;5011510;28;20198;-85
2022/01/04 02:17:27;;;;;;;1.17;0.90;;;;;;;12.25;52.44;94601.88;5013079;28;20206;-86
2022/01/04 02:19:56;;;;;;;1.03;0.80;;;;;;;12.25;52.24;94599.31;5012731;28;20226;-86
2022/01/04 02:22:22;;;;;;;0.80;0.80;;;;;;;12.33;52.36;94591.28;5011608;28;20227;-86
2022/01/04 02:24:49;;;;;;;0.80;0.80;;;;;;;12.29;51.88;94592.72;5011592;28;20201;-86
2022/01/04 02:27:16;;;;;;;0.70;0.70;;;;;;;12.38;52.13;94588.84;5012074;28;20203;-86
2022/01/04 02:29:44;;;;;;;0.80;0.80;;;;;;;12.34;52.01;94582.53;5010949;28;20306;-85
2022/01/04 02:32:11;;;;;;;0.80;0.80;;;;;;;12.40;52.30;94575.75;5011944;28;20238;-84
2022/01/04 02:34:38;;;;;;;0.70;0.70;;;;;;;12.33;52.45;94569.84;5012924;28;20195;-83
2022/01/04 02:37:06;;;;;;;1.43;0.87;;;;;;;12.32;52.24;94571.63;5011870;28;20230;-88
2022/01/04 02:39:36;;;;;;;1.17;0.90;;;;;;;12.30;52.43;94563.34;5011895;28;20226;-87
2022/01/04 02:42:04;;;;;;;0.80;0.73;;;;;;;12.34;52.93;94555.94;5010595;28;20230;-87
2022/01/04 02:44:30;;;;;;;0.73;0.73;;;;;;;12.36;53.07;94536.66;5010963;28;20209;-85
2022/01/04 02:46:57;;;;;;;1.73;0.90;;;;;;;12.42;52.63;94540.19;5011399;28;20210;-87
2022/01/04 02:49:23;;;;;;;1.73;0.93;;;;;;;12.47;52.78;94521.47;5012028;28;20219;-87
2022/01/04 02:51:50;;;;;;;1.67;1.00;;;;;;;12.54;52.86;94510.06;5010787;28;20230;-87
2022/01/04 02:54:17;;;;;;;0.70;0.70;;;;;;;12.55;52.73;94509.06;5011512;28;20210;-88
2022/01/04 02:56:44;;;;;;;0.70;0.70;;;;;;;12.43;52.89;94510.78;5011412;28;20198;-86
2022/01/04 02:59:11;;;;;;;1.30;0.83;;;;;;;12.40;53.05;94513.78;5011542;28;20693;-86
2022/01/04 03:01:37;;;;;;;1.00;0.90;;;;;;;12.36;52.68;94502.31;5010246;28;20584;-84
2022/01/04 03:04:04;;;;;;;0.90;0.80;;;;;;;12.43;52.83;94505.63;5012115;28;20210;-83
2022/01/04 03:06:30;;;;;;;0.80;0.80;;;;;;;12.40;52.66;94493.16;5014555;28;20306;-85
2022/01/04 03:08:57;;;;;;;2.37;0.80;;;;;;;12.50;52.88;94477.16;5014399;28;20199;-86
2022/01/04 03:11:25;;;;;;;1.60;0.73;;;;;;;12.46;52.73;94481.97;5014095;28;20231;-86
2022/01/04 03:13:51;;;;;;;1.00;0.90;;;;;;;12.35;53.00;94478.28;5014359;28;20203;-87
2022/01/04 03:16:18;;;;;;;0.70;0.70;;;;;;;12.32;52.97;94476.13;5014290;28;20199;-83
2022/01/04 03:19:02;;;;;;;0.70;0.70;;;;;;;12.36;53.01;94477.28;5014318;28;20565;-81
2022/01/04 03:21:29;;;;;;;0.97;0.73;;;;;;;12.36;53.31;94468.75;5013376;28;20266;-86
2022/01/04 03:23:55;;;;;;;1.23;0.70;;;;;;;12.38;53.26;94461.59;5014940;28;20578;-87
2022/01/04 03:26:22;;;;;;;0.70;0.70;;;;;;;12.40;53.52;94459.59;5015022;28;20217;-88
2022/01/04 03:28:50;;;;;;;0.70;0.70;;;;;;;12.33;53.72;94440.78;5015251;28;20207;-87
2022/01/04 03:31:16;;;;;;;0.97;0.90;;;;;;;12.35;54.01;94438.78;5014072;28;20326;-86
2022/01/04 03:33:42;;;;;;;0.70;0.70;;;;;;;12.48;53.78;94435.28;5014305;28;20198;-86
2022/01/04 03:36:09;;;;;;;1.13;0.70;;;;;;;12.42;54.03;94426.59;5013025;28;20199;-86
2022/01/04 03:38:35;;;;;;;0.80;0.80;;;;;;;12.42;53.57;94426.59;5013159;28;20206;-85
2022/01/04 03:41:02;;;;;;;0.80;0.80;;;;;;;12.40;53.79;94426.03;5012892;28;20230;-85
2022/01/04 03:43:32;;;;;;;1.17;1.00;;;;;;;12.40;53.99;94406.16;5013724;28;20203;-86
2022/01/04 03:45:59;;;;;;;0.93;0.80;;;;;;;12.38;54.70;94399.66;5014065;28;20203;-86
2022/01/04 03:48:26;;;;;;;0.97;0.90;;;;;;;12.37;54.62;94387.75;5014155;28;20203;-87
2022/01/04 03:50:52;;;;;;;0.77;0.77;;;;;;;12.34;55.10;94388.16;5013670;28;20231;-86
2022/01/04 03:53:19;;;;;;;1.07;0.80;;;;;;;12.41;54.94;94378.56;5013818;28;20586;-86
2022/01/04 03:55:45;;;;;;;1.00;0.73;;;;;;;12.46;55.28;94378.72;5013713;28;20206;-85
2022/01/04 03:58:11;;;;;;;0.80;0.80;;;;;;;12.40;54.62;94371.81;5012796;28;20202;-85
2022/01/04 04:00:38;;;;;;;0.90;0.90;;;;;;;12.38;54.19;94353.19;5012473;28;20242;-85
2022/01/04 04:03:06;;;;;;;1.33;0.80;;;;;;;12.36;54.30;94355.19;5013308;28;20217;-88
2022/01/04 04:05:32;;;;;;;1.20;0.90;;;;;;;12.38;54.61;94355.75;5013500;28;20214;-87
2022/01/04 04:07:58;;;;;;;1.17;0.90;;;;;;;12.44;54.68;94347.16;5013729;28;20199;-86
2022/01/04 04:10:25;;;;;;;2.43;0.80;;;;;;;12.49;53.99;94336.97;5013645;28;20234;-87
2022/01/04 04:12:51;;;;;;;0.97;0.60;;;;;;;12.47;54.06;94335.63;5013491;28;20206;-87
2022/01/04 04:15:18;;;;;;;0.80;0.80;;;;;;;12.48;54.41;94339.78;5013614;28;20205;-87
2022/01/04 04:17:45;;;;;;;0.90;0.80;;;;;;;12.47;54.83;94333.03;5013538;28;20678;-86
2022/01/04 04:20:13;;;;;;;0.80;0.80;;;;;;;12.56;54.70;94332.50;5012864;28;20746;-87
2022/01/04 04:22:40;;;;;;;1.20;0.80;;;;;;;12.54;54.89;94326.75;5011990;28;20255;-85
2022/01/04 04:25:07;;;;;;;0.97;0.80;;;;;;;12.59;55.28;94318.38;5013090;28;20210;-85
2022/01/04 04:27:34;;;;;;;2.50;0.90;;;;;;;12.53;55.16;94320.03;5012303;28;20253;-85
2022/01/04 04:30:00;;;;;;;0.70;0.70;;;;;;;12.60;55.27;94318.16;5012572;28;20856;-86
2022/01/04 04:32:27;;;;;;;1.03;0.90;;;;;;;12.65;55.31;94307.94;5011929;28;20233;-86
2022/01/04 04:34:53;;;;;;;1.50;1.10;;;;;;;12.69;55.11;94305.72;5011915;28;20218;-85
2022/01/04 04:37:21;;;;;;;0.70;0.70;;;;;;;12.69;55.83;94303.16;5012558;28;20206;-87
2022/01/04 04:39:47;;;;;;;1.53;0.70;;;;;;;12.66;56.36;94304.38;5014068;28;20245;-87
2022/01/04 04:42:14;;;;;;;0.97;0.90;;;;;;;12.68;56.47;94296.41;5012584;28;20234;-87
2022/01/04 04:44:40;;;;;;;1.03;0.80;;;;;;;12.65;56.54;94300.22;5013365;28;20222;-87
2022/01/04 04:47:07;;;;;;;1.23;1.00;;;;;;;12.42;57.49;94300.13;5012920;28;20671;-86
2022/01/04 04:49:33;;;;;;;0.83;0.83;;;;;;;12.35;57.78;94297.63;5013434;28;20214;-84
2022/01/04 04:52:00;;;;;;;1.43;0.97;;;;;;;12.30;59.07;94291.56;5011705;28;20218;-84
2022/01/04 04:54:27;;;;;;;1.07;1.00;;;;;;;12.14;59.90;94289.56;5012360;28;20238;-85
2022/01/04 04:56:54;;;;;;;1.20;1.10;;;;;;;12.03;59.22;94275.63;5012158;28;20199;-87
2022/01/04 04:59:20;;;;;;;1.40;1.00;;;;;;;11.99;59.39;94282.22;5012656;28;20245;-87
2022/01/04 05:01:47;;;;;;;2.20;1.00;;;;;;;11.91;57.83;94278.16;5012038;28;20227;-87
2022/01/04 05:04:13;;;;;;;1.23;1.00;;;;;;;11.91;57.69;94279.94;5012240;28;20209;-86
2022/01/04 05:06:40;;;;;;;1.20;1.10;;;;;;;11.75;57.97;94282.03;5012073;28;20199;-86
2022/01/04 05:09:06;;;;;;;1.67;1.27;;;;;;;11.78;57.67;94275.69;5012485;28;20832;-86
2022/01/04 05:11:34;;;;;;;1.40;1.30;;;;;;;11.75;57.70;94276.09;5011246;28;20230;-81
2022/01/04 05:14:00;;;;;;;1.17;1.07;;;;;;;11.67;57.36;94278.97;5013704;28;20199;-82
2022/01/04 05:16:27;;;;;;;1.13;0.93;;;;;;;11.59;57.70;94280.03;5012949;28;20219;-84
2022/01/04 05:18:54;;;;;;;1.43;1.10;;;;;;;11.52;58.10;94273.41;5013470;28;20198;-84
2022/01/04 05:21:20;;;;;;;1.53;1.17;;;;;;;11.46;58.13;94263.94;5011686;28;20345;-88
2022/01/04 05:23:47;;;;;;;1.80;1.27;;;;;;;11.43;58.43;94260.78;5012359;28;20708;-83
2022/01/04 05:26:13;;;;;;;3.30;1.33;;;;;;;11.43;58.72;94260.78;5011535;28;20209;-85
2022/01/04 05:28:47;;;;;;;1.30;1.13;;;;;;;11.42;59.08;94266.16;5012220;28;20597;-86
2022/01/04 05:31:14;;;;;;;1.30;1.17;;;;;;;11.37;58.70;94258.25;5011187;28;20226;-86
2022/01/04 05:33:40;;;;;;;1.90;1.20;;;;;;;11.36;58.95;94256.69;5012571;28;20203;-85
2022/01/04 05:36:07;;;;;;;1.60;1.50;;;;;;;11.33;59.43;94251.97;5011477;28;20203;-85
2022/01/04 05:38:33;;;;;;;1.20;1.10;;;;;;;11.27;59.80;94258.75;5010629;28;20210;-85
2022/01/04 05:41:00;;;;;;;1.30;0.83;;;;;;;11.23;60.46;94259.41;5010497;28;20234;-87
2022/01/04 05:43:26;;;;;;;1.10;1.00;;;;;;;11.25;60.14;94257.41;5007809;28;20202;-85
2022/01/04 05:45:54;;;;;;;1.57;1.20;;;;;;;11.26;60.83;94253.81;5001438;28;20211;-86
2022/01/04 05:48:21;;;;;;;1.47;1.07;;;;;;;11.24;61.42;94256.59;5006478;28;20293;-85
2022/01/04 05:50:48;;;;;;;1.40;1.10;;;;;;;11.20;61.65;94249.50;4997859;28;20230;-85
2022/01/04 05:53:14;;;;;;;1.67;1.00;;;;;;;11.16;62.11;94256.09;5002399;28;20210;-83
2022/01/04 05:55:41;;;;;;;1.57;1.10;;;;;;;11.14;62.59;94243.44;5008890;28;20204;-85
2022/01/04 05:58:07;;;;;;;1.20;1.10;;;;;;;11.15;63.54;94257.91;5001716;28;20230;-85
2022/01/04 06:00:34;;;;;;;1.60;1.00;;;;;;;11.07;63.18;94253.78;5008896;28;20229;-83
2022/01/04 06:03:02;;;;;;;1.10;1.00;;;;;;;11.06;62.86;94257.38;5008854;28;20698;-85
2022/01/04 06:05:29;;;;;;;1.20;1.10;;;;;;;11.04;63.66;94258.56;5010220;28;20202;-85
2022/01/04 06:07:55;;;;;;;2.70;1.27;;;;;;;11.03;64.03;94257.00;5010398;28;20207;-85
2022/01/04 06:10:22;;;;;;;1.37;1.10;;;;;;;11.05;64.04;94260.94;5009564;28;20223;-86
2022/01/04 06:15:38;;;;;;;1.00;1.00;;;;;;;11.12;64.31;94254.94;5010172;28;20264;-85
2022/01/04 06:18:06;;;;;;;1.20;1.10;;;;;;;11.07;64.57;94251.22;5010156;28;20202;-80
2022/01/04 06:20:32;;;;;;;1.83;1.00;;;;;;;11.11;65.76;94250.81;5009174;28;20214;-81
2022/01/04 06:22:59;;;;;;;1.50;1.27;;;;;;;11.07;65.01;94247.84;5010166;28;20252;-81
2022/01/04 06:25:25;;;;;;;1.83;1.20;;;;;;;11.05;65.17;94250.63;5010783;28;20692;-82
2022/01/04 06:27:53;;;;;;;1.33;1.23;;;;;;;10.93;65.59;94228.38;5010725;28;20211;-83
2022/01/04 06:30:22;;;;;;;1.33;1.20;;;;;;;10.86;66.33;94243.09;5008982;28;20219;-83
2022/01/04 06:32:48;;;;;;;2.10;1.17;;;;;;;10.84;66.28;94238.13;5010055;28;20199;-84
2022/01/04 06:35:16;;;;;;;1.40;1.13;;;;;;;10.70;67.38;94237.47;5011594;28;20218;-85
2022/01/04 06:37:44;;;;;;;1.77;1.03;;;;;;;10.79;66.10;94227.69;5010229;28;20199;-81
2022/01/04 06:40:12;;;;;;;2.73;1.30;;;;;;;10.76;66.80;94220.41;5012350;28;20242;-82
2022/01/04 06:42:39;;;;;;;1.30;0.93;;;;;;;10.69;67.43;94222.22;5012622;28;20238;-83
2022/01/04 06:45:06;;;;;;;3.67;1.30;;;;;;;10.70;66.48;94208.38;5012857;28;20206;-85
2022/01/04 06:47:33;;;;;;;1.37;1.10;;;;;;;10.79;66.43;94206.31;5011547;28;20195;-85
2022/01/04 06:49:59;;;;;;;1.23;1.10;;;;;;;10.80;67.17;94200.16;5013621;28;20589;-84
2022/01/04 06:52:27;;;;;;;2.33;1.40;;;;;;;10.82;67.83;94196.38;5013418;28;20231;-84
2022/01/04 06:54:54;;;;;;;1.23;1.13;;;;;;;10.87;67.38;94195.75;5013578;28;20653;-84
2022/01/04 06:57:20;;;;;;;2.03;1.40;;;;;;;10.81;68.41;94196.56;5013993;28;20202;-84
2022/01/04 06:59:47;;;;;;;2.23;1.40;;;;;;;10.85;68.22;94195.16;5013332;28;20608;-84
2022/01/04 07:02:13;;;;;;;3.17;1.77;;;;;;;10.81;70.64;94186.28;5013053;28;20231;-84
2022/01/04 07:04:40;;;;;;;1.50;1.40;;;;;;;10.84;69.98;94191.00;5012482;28;20202;-85
2022/01/04 07:07:06;;;;;;;2.27;1.50;;;;;;;10.85;70.49;94200.31;5012945;28;20214;-84
2022/01/04 07:09:34;;;;;;;1.90;1.50;;;;;;;10.89;70.56;94191.16;5012922;28;20218;-84
2022/01/04 07:12:00;;;;;;;1.40;1.30;;;;;;;10.90;70.08;94190.97;5013313;28;20227;-84
2022/01/04 07:14:27;;;;;;;2.73;1.40;;;;;;;10.91;69.93;94184.03;5012604;28;20361;-83
2022/01/04 07:16:54;;;;;;;2.80;1.30;;;;;;;10.93;69.94;94192.31;5013633;28;20195;-84
2022/01/04 07:19:22;;;;;;;3.03;1.30;;;;;;;10.87;70.52;94190.59;5013096;28;20242;-85
2022/01/04 07:21:49;;;;;;;1.83;1.10;;;;;;;10.87;70.28;94180.28;5012747;28;20724;-84
2022/01/04 07:24:15;;;;;;;1.57;1.10;;;;;;;10.90;70.79;94179.88;5013452;28;20654;-84
2022/01/04 07:26:43;;;;;;;2.37;0.90;;;;;;;10.91;70.44;94169.38;5013542;28;20223;-85
2022/01/04 07:29:10;;;;;;;1.50;1.10;;;;;;;10.94;70.93;94168.16;5013114;28;20213;-84
2022/01/04 07:31:36;;;;;;;1.63;1.00;;;;;;;10.98;70.76;94164.13;5012228;28;20279;-84
2022/01/04 07:34:03;;;;;;;1.23;1.00;;;;;;;10.98;71.20;94152.03;5012653;28;20210;-86
2022/01/04 07:36:31;;;;;;;0.80;0.80;;;;;;;10.94;71.78;94147.56;5013181;28;20199;-83
2022/01/04 07:38:58;;;;;;;1.10;1.00;;;;;;;10.93;72.38;94143.41;5013566;28;20261;-84
2022/01/04 07:41:24;;;;;;;1.93;1.10;;;;;;;10.94;72.18;94150.91;5012197;28;20242;-85
2022/01/04 07:43:52;;;;;;;1.17;1.03;;;;;;;11.06;72.00;94138.09;5012507;28;20218;-85
2022/01/04 07:46:19;;;;;;;1.37;1.00;;;;;;;11.12;72.60;94129.53;5010065;28;20574;-86
2022/01/04 07:48:47;;;;;;;2.13;1.03;;;;;;;11.20;72.05;94128.44;5013282;28;20248;-84
2022/01/04 07:51:13;;;;;;;1.93;1.00;;;;;;;11.25;72.03;94126.78;5012378;28;20334;-85
2022/01/04 07:53:39;;;;;;;1.27;1.13;;;;;;;11.31;71.89;94125.94;5015155;28;20574;-84
2022/01/04 07:56:06;;;;;;;1.10;1.03;;;;;;;11.30;72.51;94115.84;4998317;28;20218;-86
2022/01/04 07:58:32;;;;;;;1.87;1.20;;;;;;;11.23;73.23;94115.13;4995935;28;20204;-82
2022/01/04 08:01:01;;;;;;;1.50;1.40;;;;;;;11.27;72.52;94111.91;5004955;28;20231;-85
2022/01/04 08:03:28;;;;;;;1.33;1.00;;;;;;;11.20;74.26;94103.47;5012354;28;20736;-84
2022/01/04 08:05:54;;;;;;;1.20;1.10;;;;;;;11.17;74.56;94095.38;5009032;28;20681;-84
2022/01/04 08:08:20;;;;;;;1.30;1.00;;;;;;;11.05;76.33;94093.53;5011761;28;20214;-84
2022/01/04 08:10:48;;;;;;;0.83;0.83;;;;;;;11.02;78.38;94100.91;5012386;28;20234;-84
2022/01/04 08:13:14;;;;;;;2.20;0.80;;;;;;;11.02;80.23;94088.03;5013225;28;20191;-85
2022/01/04 08:15:41;;;;;;;1.53;0.70;;;;;;;11.11;80.87;94088.53;5012267;28;20195;-85
2022/01/04 08:18:09;;;;;;;0.73;0.70;;;;;;;11.10;82.19;94085.16;5010650;28;20194;-82
2022/01/04 08:20:35;;;;;;;0.77;0.70;;;;;;;11.20;83.41;94066.63;5011020;28;20218;-81
2022/01/04 08:23:02;;;;;;;0.70;0.70;;;;;;;11.29;83.16;94073.84;5007162;28;20227;-81
2022/01/04 08:25:30;;;;;;;0.63;0.63;;;;;;;11.32;83.96;94068.25;4994719;28;20203;-82
2022/01/04 08:27:57;;;;;;;1.03;0.70;;;;;;;11.35;84.23;94054.16;5010932;28;20214;-84
2022/01/04 08:30:23;;;;;;;0.80;0.80;;;;;;;11.42;83.92;94050.47;5011025;28;20225;-84
2022/01/04 08:32:51;;;;;;;1.07;0.70;;;;;;;11.57;82.64;94044.13;5012143;28;20210;-86
2022/01/04 08:35:19;;;;;;;0.87;0.70;;;;;;;11.62;83.87;94033.94;5012336;28;20250;-83
2022/01/04 08:37:46;;;;;;;0.80;0.80;;;;;;;11.67;84.02;94036.66;5010287;28;20198;-84
2022/01/04 08:40:12;;;;;;;1.87;0.73;;;;;;;11.64;85.31;94030.13;5011595;28;20222;-85
2022/01/04 08:42:39;;;;;;;1.20;0.80;;;;;;;11.71;84.44;94027.47;5011250;28;20742;-83
2022/01/04 08:45:08;;;;;;;1.07;0.60;;;;;;;11.70;84.92;94016.38;5010892;28;20211;-84
2022/01/04 08:47:34;;;;;;;1.70;0.60;;;;;;;11.79;84.63;94014.28;5010442;28;20198;-84
2022/01/04 08:50:01;;;;;;;0.60;0.60;;;;;;;11.94;84.57;94011.25;5010769;28;20252;-83
2022/01/04 08:52:29;;;;;;;1.07;0.97;;;;;;;12.01;84.44;94005.00;5010090;28;20222;-82
2022/01/04 08:54:55;;;;;;;0.60;0.60;;;;;;;12.12;83.57;93998.28;5011382;28;20202;-81
2022/01/04 08:57:23;;;;;;;1.23;0.87;;;;;;;12.26;82.79;93991.88;5010532;28;20199;-82
2022/01/04 08:59:50;;;;;;;0.70;0.70;;;;;;;12.30;82.55;93987.84;5010433;28;20206;-86
2022/01/04 09:02:16;;;;;;;1.77;0.83;;;;;;;12.35;82.12;93995.66;5010359;28;20371;-82
2022/01/04 09:04:42;;;;;;;1.13;0.80;;;;;;;12.38;82.28;93979.72;5011591;28;20214;-84
2022/01/04 09:07:09;;;;;;;1.10;0.80;;;;;;;12.39;82.49;93991.63;5011417;28;20211;-85
2022/01/04 09:09:37;;;;;;;0.87;0.73;;;;;;;12.41;82.75;93987.03;5011005;28;20606;-85
2022/01/04 09:12:04;;;;;;;0.80;0.80;;;;;;;12.42;82.86;93972.31;5008712;28;20226;-83
2022/01/04 09:14:42;;;;;;;0.93;0.80;;;;;;;12.33;82.86;93969.31;5010959;28;20202;-84
2022/01/04 09:19:53;;;;;;;0.70;0.70;;;;;;;12.33;80.14;93979.63;4995030;28;20329;-84
2022/01/04 09:22:20;;;;;;;0.93;0.80;;;;;;;12.35;78.85;93980.19;5010571;28;20253;-83
2022/01/04 09:24:47;;;;;;;0.87;0.87;;;;;;;12.33;77.87;93986.56;5012023;28;20206;-85
2022/01/04 09:27:14;;;;;;;0.70;0.70;;;;;;;12.38;76.89;93981.53;5011602;28;20206;-84
2022/01/04 09:29:40;;;;;;;1.40;0.83;;;;;;;12.39;76.75;93983.88;5010254;28;20729;-85
2022/01/04 09:32:13;;;;;;;1.83;0.80;;;;;;;12.43;76.15;93976.47;5011436;28;20227;-85
2022/01/04 09:34:39;;;;;;;0.80;0.80;;;;;;;12.40;74.65;93975.13;5010891;28;20207;-82
2022/01/04 09:37:06;;;;;;;0.83;0.80;;;;;;;12.43;74.72;93974.69;5010450;28;20214;-82
2022/01/04 09:39:33;;;;;;;0.73;0.73;;;;;;;12.45;73.96;93971.88;5010467;28;20222;-82
2022/01/04 09:42:01;;;;;;;1.33;0.80;;;;;;;12.44;73.79;93962.56;5010498;28;20219;-83
2022/01/04 09:44:28;;;;;;;0.60;0.60;;;;;;;12.51;73.18;93952.13;5010585;28;20741;-81
2022/01/04 09:46:55;;;;;;;0.70;0.70;;;;;;;12.49;72.60;93948.97;5010451;28;20203;-87
2022/01/04 09:49:22;;;;;;;1.13;0.70;;;;;;;12.50;72.05;93940.22;5010514;28;20217;-85
2022/01/04 09:51:50;;;;;;;0.70;0.70;;;;;;;12.62;72.47;93948.72;5010373;28;20632;-83
2022/01/04 09:54:19;;;;;;;0.77;0.77;;;;;;;12.63;71.80;93939.97;5011870;28;20199;-84
2022/01/04 09:56:47;;;;;;;1.60;0.80;;;;;;;12.70;71.58;93932.88;5011664;28;20253;-83
2022/01/04 09:59:15;;;;;;;0.70;0.70;;;;;;;12.74;71.35;93926.22;5011203;28;20663;-84
2022/01/04 10:01:43;;;;;;;0.83;0.80;;;;;;;12.71;70.79;93929.25;5010148;28;20243;-84
2022/01/04 10:04:10;;;;;;;1.10;0.90;;;;;;;12.74;71.03;93923.63;5011641;28;20222;-85
2022/01/04 10:06:39;;;;;;;0.77;0.77;;;;;;;12.75;71.72;93915.66;5011419;28;20206;-85
2022/01/04 10:09:08;;;;;;;0.97;0.90;;;;;;;12.83;71.25;93918.91;5012286;28;20725;-86
2022/01/04 10:11:39;;;;;;;0.87;0.87;;;;;;;12.82;71.41;93918.13;5009573;28;20231;-84
2022/01/04 10:14:25;;;;;;;0.77;0.77;;;;;;;12.85;70.98;93909.13;4999489;28;20206;-87
2022/01/04 10:16:52;;;;;;;0.77;0.77;;;;;;;12.87;71.54;93915.63;5010846;28;20593;-85
2022/01/04 10:19:27;;;;;;;0.80;0.80;;;;;;;12.92;70.75;93907.16;5016277;28;20194;-86
2022/01/04 10:22:12;;;;;;;1.00;0.80;;;;;;;12.97;70.70;93902.88;5016491;28;20222;-86
2022/01/04 10:24:39;;;;;;;1.73;1.20;;;;;;;13.04;71.38;93907.91;5016928;28;20224;-86
2022/01/04 10:27:24;;;;;;;0.80;0.80;;;;;;;13.10;71.13;93900.00;5016427;28;20202;-86
2022/01/04 10:30:22;;;;;;;0.90;0.90;;;;;;;13.13;71.45;93876.28;5016072;28;20218;-85
2022/01/04 10:32:51;;;;;;;1.33;1.00;;;;;;;13.10;71.42;93878.53;5016194;28;20225;-85
2022/01/04 10:35:38;;;;;;;1.03;0.93;;;;;;;13.16;71.37;93875.06;5016049;28;20315;-86
2022/01/04 10:38:17;;;;;;;1.10;1.00;;;;;;;13.13;71.90;93878.88;4995957;28;20184;-85
2022/01/04 10:40:47;;;;;;;0.97;0.87;;;;;;;13.16;71.94;93875.06;5013381;28;20227;-85
2022/01/04 10:43:15;;;;;;;0.93;0.80;;;;;;;13.23;71.90;93859.41;5015477;28;20223;-85
2022/01/04 10:45:45;;;;;;;1.33;0.80;;;;;;;13.29;70.78;93858.47;5015486;28;20689;-85
2022/01/04 10:48:17;;;;;;;0.90;0.70;;;;;;;13.41;71.18;93861.75;5014988;28;20827;-85
2022/01/04 10:50:45;;;;;;;1.03;0.77;;;;;;;13.50;69.42;93857.75;4999662;28;20231;-84
2022/01/04 10:53:21;;;;;;;0.60;0.60;;;;;;;13.62;67.99;93858.47;5010374;28;20202;-83
2022/01/04 10:55:50;;;;;;;1.13;0.70;;;;;;;13.77;66.91;93848.31;5014975;28;20527;-85
2022/01/04 10:58:23;;;;;;;0.97;0.87;;;;;;;13.86;65.87;93842.72;5013324;28;20202;-83
2022/01/04 11:00:53;;;;;;;0.87;0.87;;;;;;;13.94;65.81;93844.91;5012554;28;20234;-84
2022/01/04 11:03:25;;;;;;;0.90;0.77;;;;;;;14.00;65.04;93829.22;5013424;28;20222;-85
2022/01/04 11:05:56;;;;;;;0.70;0.70;;;;;;;14.09;65.26;93821.78;5013842;28;20237;-84
2022/01/04 11:08:22;;;;;;;0.80;0.80;;;;;;;14.17;64.94;93818.78;5013286;28;20203;-83
2022/01/04 11:10:50;;;;;;;0.70;0.70;;;;;;;14.26;64.33;93813.97;5012614;28;20233;-82
2022/01/04 11:13:17;;;;;;;1.57;0.83;;;;;;;14.29;63.45;93810.88;5005838;28;20195;-85
2022/01/04 11:15:43;;;;;;;0.80;0.80;;;;;;;14.34;62.72;93805.78;5013969;28;20667;-84
2022/01/04 11:18:12;;;;;;;0.70;0.70;;;;;;;14.40;61.82;93804.81;5014112;28;20714;-86
2022/01/04 11:20:40;;;;;;;0.70;0.70;;;;;;;14.55;62.15;93809.38;5013580;28;20603;-86
2022/01/04 11:23:07;;;;;;;0.83;0.70;;;;;;;14.65;61.35;93804.28;5014433;28;20222;-84
2022/01/04 11:25:34;;;;;;;1.67;0.73;;;;;;;14.74;60.64;93797.66;5009275;28;20561;-84
2022/01/04 11:28:02;;;;;;;1.13;0.70;;;;;;;14.83;60.02;93791.75;4994612;28;20230;-87
2022/01/04 11:30:36;;;;;;;0.63;0.63;;;;;;;14.99;58.64;93774.56;5010275;28;20265;-84
2022/01/04 11:33:06;;;;;;;0.80;0.80;;;;;;;15.14;58.57;93766.09;5014789;28;20225;-86
2022/01/04 11:35:34;;;;;;;0.80;0.70;;;;;;;15.22;57.98;93770.81;5013023;28;20195;-85
2022/01/04 11:38:01;;;;;;;0.90;0.90;;;;;;;15.30;57.71;93759.19;5013403;28;20616;-85
2022/01/04 11:40:32;;;;;;;0.98;0.80;;;;;;;15.32;57.39;93768.28;5011181;28;20218;-86
2022/01/04 11:43:01;;;;;;;1.42;0.80;;;;;;;15.33;57.39;93751.72;5013980;28;20660;-81
2022/01/04 11:45:44;;;;;;;0.80;0.80;;;;;;;15.33;56.72;93762.09;5013020;28;20214;-85